• Join FlightAware (Why Join?)
  • Login
  • US Flag 
02:56PM EDT


 

Airport Tracker/Info


-or-


 

Live Flight TrackerFlight Track Log ✈ DAL1903 ✈ 14-Apr-2013 ✈ KLGA - KSRQ

Flight Track Log - Related Links

Times and Time Zones

All times are in EDT time to prevent confusion due to time zone crossing. See the DAL1903 flight status page for this flight to view local times or setup timezone preferences in your user account.

Time Position Orientation Groundspeed Altitude Reporting Facility
EDT Latitude Longitude Course Direction KTS MPH feet Rate Location/Type
11:00AM 40.8000 -73.9000 333° Northwest 158 182 1,300  Level New York TRACON
11:01AM 40.8500 -73.9333 333° Northwest 230 265 3,400 2,580 Climbing New York TRACON
11:02AM 40.9000 -73.9833 323° Northwest 253 291 6,300 3,600 Climbing New York TRACON
11:03AM 40.9167 -74.0667 285° West 226 260 10,600 2,520 Climbing New York TRACON
11:04AM 40.8667 -74.1500 232° Southwest 293 337 11,700 1,200 Climbing New York TRACON
11:05AM 40.8000 -74.2667 233° Southwest 362 417 13,100 2,040 Climbing New York TRACON
11:07AM 40.6733 -74.5058 235° Southwest 392 451 18,600 2,040 Climbing New York Center
11:08AM 40.6075 -74.6144 231° Southwest 392 451 20,000 1,620 Climbing New York Center
11:09AM 40.5369 -74.7253 230° Southwest 399 459 21,900 1,800 Climbing New York Center
11:10AM 40.4664 -74.8439 232° Southwest 405 466 23,600 1,860 Climbing New York Center
11:11AM 40.4022 -74.9464 231° Southwest 412 474 25,700 2,100 Climbing New York Center
11:12AM 40.3317 -75.0564 230° Southwest 406 467 27,900 1,620 Climbing New York Center
11:13AM 40.2672 -75.1639 232° Southwest 396 456 29,100 960 Climbing New York Center
11:14AM 40.1986 -75.2739 231° Southwest 396 456 29,900 420 Climbing New York Center
11:15AM 40.1319 -75.3808 231° Southwest 396 456 30,000  Climbing New York Center
11:16AM 40.0567 -75.4869 227° Southwest 391 450 30,000  Level New York Center
11:17AM 39.9817 -75.5875 226° Southwest 391 450 30,000  Level New York Center
11:18AM 39.9067 -75.6906 227° Southwest 396 456 30,000  Level New York Center
11:19AM 39.8394 -75.8022 232° Southwest 396 456 30,000  Level New York Center
11:20AM 39.7700 -75.9108 230° Southwest 396 456 30,000  Level New York Center
11:21AM 39.7047 -76.0219 233° Southwest 391 450 30,000  Level New York Center
11:22AM 39.6375 -76.1275 230° Southwest 391 450 30,000  Level New York Center
11:23AM 39.5533 -76.2508 229° Southwest 376 433 30,000  Level Washington Center
11:24AM 39.4819 -76.3578 229° Southwest 402 463 30,000  Level Washington Center
11:25AM 39.4167 -76.4672 232° Southwest 402 463 30,000  Level Washington Center
11:26AM 39.3428 -76.5792 230° Southwest 402 463 30,000  Level Washington Center
11:27AM 39.2772 -76.6881 232° Southwest 396 456 30,000  Level Washington Center
11:28AM 39.2075 -76.7942 230° Southwest 396 456 30,000  Level Washington Center
11:29AM 39.1375 -76.9028 230° Southwest 401 461 30,000  Level Washington Center
11:30AM 39.0633 -77.0086 228° Southwest 401 461 30,000  Level Washington Center
11:31AM 38.9808 -77.1083 223° Southwest 401 461 30,000  Level Washington Center
11:32AM 38.8986 -77.2000 221° Southwest 401 461 30,000  Level Washington Center
11:33AM 38.8117 -77.2967 221° Southwest 406 467 30,000  Level Washington Center
11:34AM 38.7269 -77.3853 219° Southwest 406 467 30,000  Level Washington Center
11:35AM 38.6486 -77.4711 221° Southwest 415 478 30,000  Level Washington Center
11:36AM 38.5553 -77.5697 220° Southwest 410 472 30,000  Level Washington Center
11:37AM 38.4808 -77.6550 222° Southwest 410 472 30,000  Level Washington Center
11:38AM 38.3872 -77.7558 220° Southwest 410 472 30,000  Level Washington Center
11:39AM 38.3086 -77.8356 219° Southwest 410 472 30,000  Level Washington Center
11:40AM 38.2172 -77.9358 221° Southwest 410 472 30,000  Level Washington Center
11:41AM 38.1425 -78.0153 220° Southwest 405 466 30,000  Level Washington Center
11:42AM 38.0489 -78.1125 219° Southwest 405 466 30,000  Level Washington Center
11:43AM 37.9761 -78.1972 223° Southwest 405 466 30,000  Level Washington Center
11:44AM 37.8844 -78.2808 216° Southwest 405 466 30,000  Level Washington Center
11:45AM 37.7992 -78.3619 217° Southwest 405 466 30,000  Level Washington Center
11:46AM 37.7033 -78.4528 217° Southwest 398 458 30,000  Level Washington Center
11:47AM 37.6158 -78.5333 216° Southwest 398 458 30,000  Level Washington Center
11:48AM 37.5283 -78.6139 216° Southwest 398 458 30,000  Level Washington Center
11:49AM 37.4386 -78.6967 216° Southwest 398 458 30,000 -900 Level Washington Center
11:50AM 37.3594 -78.7692 216° Southwest 398 458 28,200 -1,560 Descending Washington Center
11:51AM 37.2653 -78.8567 216° Southwest 410 472 26,900 -780 Descending Washington Center
11:52AM 37.1711 -78.9439 216° Southwest 421 484 26,700 -360 Descending Washington Center
11:53AM 37.0769 -79.0308 216° Southwest 421 484 26,200 -360 Descending Washington Center
11:54AM 36.9825 -79.1203 217° Southwest 426 490 26,000 -120 Descending Washington Center
11:55AM 36.8814 -79.2169 217° Southwest 426 490 26,000  Level Washington Center
11:58AM 36.6514 -79.4253 216° Southwest 431 496 26,000  Level Atlanta Center
11:59AM 36.5667 -79.5025 216° Southwest 431 496 26,000  Level Atlanta Center
12:00PM 36.4719 -79.5878 216° Southwest 424 488 26,000  Level Atlanta Center
12:01PM 36.3769 -79.6731 216° Southwest 424 488 26,000  Level Atlanta Center
12:02PM 36.2842 -79.7606 217° Southwest 424 488 26,000  Level Atlanta Center
12:03PM 36.1769 -79.8564 216° Southwest 424 488 26,000  Level Atlanta Center
12:04PM 36.0794 -79.9408 215° Southwest 424 488 26,000  Level Atlanta Center
12:05PM 35.9775 -80.0103 209° Southwest 424 488 26,000  Level Atlanta Center
12:06PM 35.8667 -80.0644 202° Southwest 424 488 26,000  Level Atlanta Center
12:07PM 35.7639 -80.1131 201° Southwest 429 494 26,000  Level Atlanta Center
12:08PM 35.6533 -80.1744 204° Southwest 434 499 26,000  Level Atlanta Center
12:09PM 35.5422 -80.2308 202° Southwest 434 499 26,000  Level Atlanta Center
12:10PM 35.4336 -80.2867 203° Southwest 434 499 26,000  Level Atlanta Center
12:11PM 35.3103 -80.3483 202° Southwest 434 499 26,000  Level Atlanta Center
12:13PM 35.1122 -80.4439 202° Southwest 453 521 26,000  Level Jacksonville Center
12:14PM 34.9903 -80.5056 203° Southwest 447 514 26,000  Level Jacksonville Center
12:15PM 34.8789 -80.5594 202° Southwest 439 505 26,000  Level Jacksonville Center
12:16PM 34.7714 -80.6153 203° Southwest 427 491 26,000  Level Jacksonville Center
12:17PM 34.6639 -80.6661 201° Southwest 422 486 26,000  Level Jacksonville Center
12:18PM 34.5500 -80.7222 202° Southwest 438 504 26,000  Level Jacksonville Center
12:19PM 34.4425 -80.7728 201° Southwest 432 497 26,000  Level Jacksonville Center
12:20PM 34.3350 -80.8281 203° Southwest 432 497 26,000  Level Jacksonville Center
12:21PM 34.2356 -80.8756 202° Southwest 414 476 26,000  Level Jacksonville Center
12:22PM 34.1278 -80.9283 202° Southwest 414 476 26,000  Level Jacksonville Center
12:23PM 34.0203 -80.9833 203° Southwest 414 476 26,000  Level Jacksonville Center
12:24PM 33.9331 -81.0253 202° Southwest 414 476 26,000  Level Jacksonville Center
12:25PM 33.8192 -81.0803 202° Southwest 414 476 26,000 -60 Level Jacksonville Center
12:26PM 33.7033 -81.1400 203° Southwest 414 476 25,900  Descending Jacksonville Center
12:27PM 33.6017 -81.1869 201° Southwest 414 476 26,000  Climbing Jacksonville Center
12:28PM 33.4958 -81.2414 203° Southwest 408 470 26,000  Level Jacksonville Center
12:29PM 33.3922 -81.2906 202° Southwest 413 475 26,000  Level Jacksonville Center
12:30PM 33.2883 -81.3419 202° Southwest 413 475 26,000  Level Jacksonville Center
12:31PM 33.1847 -81.3908 202° Southwest 413 475 26,000  Level Jacksonville Center
12:32PM 33.0789 -81.4422 202° Southwest 413 475 26,000  Level Jacksonville Center
12:33PM 32.9731 -81.4936 202° Southwest 413 475 26,000  Level Jacksonville Center
12:34PM 32.8669 -81.5447 202° Southwest 413 475 26,000  Level Jacksonville Center
12:35PM 32.7633 -81.5956 202° Southwest 413 475 26,000  Level Jacksonville Center
12:36PM 32.6594 -81.6489 203° Southwest 408 470 26,000  Level Jacksonville Center
12:37PM 32.5617 -81.6922 200° South 415 478 26,000  Level Jacksonville Center
12:38PM 32.4431 -81.7456 201° Southwest 415 478 26,000  Level Jacksonville Center
12:39PM 32.3497 -81.7933 203° Southwest 415 478 26,000  Level Jacksonville Center
12:40PM 32.2650 -81.8950 225° Southwest 397 457 26,000  Level Jacksonville Center
12:41PM 32.1947 -81.9939 230° Southwest 390 449 26,000  Level Jacksonville Center
12:42PM 32.1347 -82.0831 232° Southwest 395 455 26,000  Level Jacksonville Center
12:43PM 32.0603 -82.1939 232° Southwest 400 460 26,000  Level Jacksonville Center
12:44PM 31.9919 -82.2972 232° Southwest 405 466 26,000  Level Jacksonville Center
12:45PM 31.9317 -82.3908 233° Southwest 405 466 26,000  Level Jacksonville Center
12:46PM 31.8589 -82.4964 231° Southwest 410 472 26,000  Level Jacksonville Center
12:47PM 31.7883 -82.5969 230° Southwest 410 472 26,000  Level Jacksonville Center
12:48PM 31.7197 -82.7019 232° Southwest 410 472 26,000  Level Jacksonville Center
12:49PM 31.6486 -82.8072 232° Southwest 415 478 26,000  Level Jacksonville Center
12:50PM 31.5778 -82.9072 230° Southwest 415 478 26,000  Level Jacksonville Center
12:51PM 31.5067 -83.0094 231° Southwest 415 478 26,000  Level Jacksonville Center
12:52PM 31.4336 -83.1117 230° Southwest 415 478 26,000  Level Jacksonville Center
12:53PM 31.3644 -83.2136 232° Southwest 415 478 26,000  Level Jacksonville Center
12:54PM 31.2911 -83.3206 231° Southwest 420 483 26,000  Level Jacksonville Center
12:55PM 31.2175 -83.4247 230° Southwest 420 483 26,000  Level Jacksonville Center
12:56PM 31.1397 -83.5383 231° Southwest 420 483 26,000  Level Jacksonville Center
12:57PM 31.0392 -83.6006 208° Southwest 413 475 26,000  Level Jacksonville Center
12:58PM 30.9219 -83.6361 195° South 407 468 26,000  Level Jacksonville Center
12:59PM 30.8092 -83.6642 192° South 417 480 26,000  Level Jacksonville Center
01:00PM 30.6942 -83.6897 191° South 422 486 26,000  Level Jacksonville Center
01:01PM 30.5792 -83.7178 192° South 422 486 26,000  Level Jacksonville Center
01:02PM 30.4661 -83.7458 192° South 422 486 26,000  Level Jacksonville Center
01:03PM 30.3511 -83.7736 192° South 422 486 26,000 -300 Level Jacksonville Center
01:04PM 30.2300 -83.8014 191° South 428 493 25,500 -540 Descending Jacksonville Center
01:05PM 30.1150 -83.8267 191° South 428 493 25,000 -300 Descending Jacksonville Center
01:06PM 29.9978 -83.8567 192° South 428 493 25,000 -60 Level Jacksonville Center
01:07PM 29.8847 -83.8819 191° South 428 493 24,900  Descending Jacksonville Center
01:08PM 29.7783 -83.8689 174° South 408 470 25,000  Climbing Jacksonville Center
01:09PM 29.6850 -83.8081 150° Southeast 378 435 25,000  Level Jacksonville Center
01:10PM 29.5894 -83.7475 151° Southeast 378 435 25,000  Level Jacksonville Center
01:11PM 29.4958 -83.6872 151° Southeast 383 441 25,000  Level Jacksonville Center
01:12PM 29.4022 -83.6267 151° Southeast 383 441 25,000  Level Jacksonville Center
01:13PM 29.3106 -83.5689 151° Southeast 383 441 25,000  Level Jacksonville Center
01:14PM 29.2108 -83.5158 155° Southeast 383 441 25,000 -60 Level Jacksonville Center
01:15PM 29.0983 -83.4581 156° South 402 463 24,900  Descending Jacksonville Center
01:16PM 28.9878 -83.3983 155° Southeast 426 490 25,000  Climbing Jacksonville Center
01:17PM 28.8711 -83.3383 156° South 449 517 24,900 -660 Descending Jacksonville Center
01:18PM 28.7586 -83.2928 160° South 449 517 23,700 -1,860 Descending Jacksonville Center
01:20PM 28.5167 -83.2000 161° South 390 449 18,800 -2,100 Descending Tampa TRACON
01:21PM 28.4167 -83.1500 156° South 371 427 16,700 -1,980 Descending Tampa TRACON
01:22PM 28.3333 -83.1167 161° South 358 412 14,900 -1,740 Descending Tampa TRACON
01:23PM 28.2167 -83.0667 159° South 339 390 13,000 -1,200 Descending Tampa TRACON
01:24PM 28.1333 -83.0333 161° South 345 397 12,300 -720 Descending Tampa TRACON
01:25PM 28.0667 -83.0167 168° South 338 389 11,800 -840 Descending Tampa TRACON
01:26PM 27.9667 -82.9667 156° South 313 360 10,800 -1,080 Descending Tampa TRACON
01:27PM 27.9000 -82.9167 146° Southeast 282 325 9,500 -1,260 Descending Tampa TRACON
01:28PM 27.8333 -82.8833 156° South 279 321 8,300 -1,320 Descending Tampa TRACON
01:29PM 27.7667 -82.8500 156° South 270 311 7,100 -1,140 Descending Tampa TRACON
01:30PM 27.6833 -82.8000 152° Southeast 263 303 6,000 -780 Descending Tampa TRACON
01:31PM 27.6333 -82.7833 164° South 260 299 5,600 -660 Descending Tampa TRACON
01:32PM 27.5833 -82.7500 149° Southeast 250 288 4,900 -1,200 Descending Tampa TRACON
01:33PM 27.5167 -82.7000 146° Southeast 232 267 3,200 -1,320 Descending Tampa TRACON
01:34PM 27.4833 -82.6500 127° Southeast 202 232 2,200 -900 Descending Tampa TRACON
01:35PM 27.4500 -82.6167 138° Southeast 148 170 1,400 -780 Descending Tampa TRACON
01:36PM 27.4333 -82.5833 119° Southeast 140 161 700 -720 Descending Tampa TRACON